createdAt,value
2016-04-23T00:00:53.685Z,1011.57
2016-04-23T00:01:53.891Z,1011.59
2016-04-23T00:02:53.675Z,1011.57
2016-04-23T00:03:53.677Z,1011.56
2016-04-23T00:04:53.883Z,1011.58
2016-04-23T00:05:53.871Z,1011.55
2016-04-23T00:06:53.874Z,1011.55
2016-04-23T00:07:53.673Z,1011.52
2016-04-23T00:08:53.863Z,1011.51
2016-04-23T00:09:53.850Z,1011.51
2016-04-23T00:10:53.869Z,1011.47
2016-04-23T00:11:53.840Z,1011.46
2016-04-23T00:12:53.640Z,1011.47
2016-04-23T00:13:53.845Z,1011.45
2016-04-23T00:14:53.832Z,1011.46
2016-04-23T00:15:53.835Z,1011.47
2016-04-23T00:16:53.619Z,1011.43
2016-04-23T00:17:53.622Z,1011.48
2016-04-23T00:18:53.812Z,1011.46
2016-04-23T00:19:53.628Z,1011.43
2016-04-23T00:20:53.817Z,1011.4
2016-04-23T00:21:53.804Z,1011.35
2016-04-23T00:22:53.807Z,1011.4
2016-04-23T00:23:53.809Z,1011.36
2016-04-23T00:24:53.797Z,1011.36
2016-04-23T00:25:53.784Z,1011.31
2016-04-23T00:26:53.583Z,1011.3
2016-04-23T00:27:53.586Z,1011.3
2016-04-23T00:28:53.777Z,1011.32
2016-04-23T00:29:53.575Z,1011.29
2016-04-23T00:30:53.766Z,1011.29
2016-04-23T00:31:53.550Z,1011.27
2016-04-23T00:32:53.772Z,1011.27
2016-04-23T00:33:53.758Z,1011.29
2016-04-23T00:34:53.746Z,1011.23
2016-04-23T00:35:53.749Z,1011.21
2016-04-23T00:36:53.548Z,1011.24
2016-04-23T00:37:53.535Z,1011.22
2016-04-23T00:38:53.522Z,1011.2
2016-04-23T00:39:53.524Z,1011.18
2016-04-23T00:40:53.730Z,1011.21
2016-04-23T00:41:53.718Z,1011.22
2016-04-23T00:42:53.517Z,1011.23
2016-04-23T00:43:53.504Z,1011.2
2016-04-23T00:44:53.507Z,1011.18
2016-04-23T00:45:53.698Z,1011.21
2016-04-23T00:46:53.700Z,1011.18
2016-04-23T00:47:53.687Z,1011.2
2016-04-23T00:48:53.690Z,1011.18
2016-04-23T00:49:53.473Z,1011.2
2016-04-23T00:50:53.679Z,1011.19
2016-04-23T00:51:53.681Z,1011.19
2016-04-23T00:52:53.670Z,1011.15
2016-04-23T00:53:53.469Z,1011.15
2016-04-23T00:54:53.456Z,1011.14
2016-04-23T00:55:53.458Z,1011.13
2016-04-23T00:56:53.461Z,1011.09
2016-04-23T00:57:53.448Z,1011.11
2016-04-23T00:58:53.435Z,1011.08
2016-04-23T00:59:53.641Z,1011.1
2016-04-23T01:00:53.628Z,1011.1
2016-04-23T01:01:53.631Z,1011.12
2016-04-23T01:02:53.430Z,1011.08
2016-04-23T01:03:53.416Z,1011.09
2016-04-23T01:04:53.623Z,1011.08
2016-04-23T01:05:53.611Z,1011.03
2016-04-23T01:06:53.613Z,1011.04
2016-04-23T01:07:53.396Z,1010.98
2016-04-23T01:08:53.603Z,1010.98
2016-04-23T01:09:53.387Z,1011.02
2016-04-23T01:10:53.593Z,1011.01
2016-04-23T01:11:53.376Z,1011.02
2016-04-23T01:12:53.380Z,1011
2016-04-23T01:13:53.569Z,1011
2016-04-23T01:14:53.571Z,1011.04
2016-04-23T01:15:53.574Z,1011.03
2016-04-23T01:16:53.561Z,1011.01
2016-04-23T01:17:53.565Z,1011.01
2016-04-23T01:18:53.551Z,1011.04
2016-04-23T01:19:53.351Z,1011
2016-04-23T01:20:53.542Z,1011.01
2016-04-23T01:21:53.545Z,1010.94
2016-04-23T01:22:53.531Z,1010.97
2016-04-23T01:23:53.533Z,1010.99
2016-04-23T01:24:53.318Z,1010.95
2016-04-23T01:25:53.523Z,1010.95
2016-04-23T01:26:53.323Z,1010.94
2016-04-23T01:27:53.310Z,1010.96
2016-04-23T01:28:53.297Z,1010.91
2016-04-23T01:29:53.503Z,1010.91
2016-04-23T01:30:53.302Z,1010.94
2016-04-23T01:31:53.492Z,1010.95
2016-04-23T01:32:53.292Z,1010.95
2016-04-23T01:33:53.280Z,1010.96
2016-04-23T01:34:53.485Z,1010.95
2016-04-23T01:35:53.269Z,1010.97
2016-04-23T01:36:53.475Z,1010.93
2016-04-23T01:37:53.477Z,1010.92
2016-04-23T01:38:53.465Z,1010.96
2016-04-23T01:39:53.452Z,1010.93
2016-04-23T01:40:53.454Z,1010.91
2016-04-23T01:41:53.473Z,1010.94
2016-04-23T01:42:53.241Z,1010.94
2016-04-23T01:43:53.446Z,1010.93
2016-04-23T01:44:53.231Z,1010.89
2016-04-23T01:45:53.437Z,1010.88
2016-04-23T01:46:53.424Z,1010.93
2016-04-23T01:47:53.426Z,1010.93
2016-04-23T01:48:53.413Z,1010.9
2016-04-23T01:49:53.416Z,1010.92
2016-04-23T01:50:53.200Z,1010.9
2016-04-23T01:51:53.406Z,1010.89
2016-04-23T01:52:53.408Z,1010.91
2016-04-23T01:53:53.193Z,1010.89
2016-04-23T01:54:53.383Z,1010.85
2016-04-23T01:55:53.385Z,1010.9
2016-04-23T01:56:53.389Z,1010.87
2016-04-23T01:57:53.172Z,1010.84
2016-04-23T01:58:53.378Z,1010.84
2016-04-23T01:59:53.161Z,1010.88
2016-04-23T02:00:53.368Z,1010.81
2016-04-23T02:01:53.355Z,1010.82
2016-04-23T02:02:53.154Z,1010.81
2016-04-23T02:03:53.157Z,1010.78
2016-04-23T02:04:53.346Z,1010.75
2016-04-23T02:05:53.147Z,1010.75
2016-04-23T02:06:53.133Z,1010.7
2016-04-23T02:07:53.136Z,1010.69
2016-04-23T02:08:53.327Z,1010.69
2016-04-23T02:09:53.330Z,1010.71
2016-04-23T02:10:53.316Z,1010.7
2016-04-23T02:11:53.318Z,1010.69
2016-04-23T02:12:53.103Z,1010.7
2016-04-23T02:13:53.309Z,1010.71
2016-04-23T02:14:53.108Z,1010.7
2016-04-23T02:15:53.298Z,1010.7
2016-04-23T02:16:53.301Z,1010.71
2016-04-23T02:17:53.085Z,1010.69
2016-04-23T02:18:53.290Z,1010.71
2016-04-23T02:19:53.075Z,1010.69
2016-04-23T02:20:53.265Z,1010.69
2016-04-23T02:21:53.065Z,1010.66
2016-04-23T02:22:53.061Z,1010.68
2016-04-23T02:23:53.252Z,1010.64
2016-04-23T02:24:53.255Z,1010.59
2016-04-23T02:25:53.038Z,1010.63
2016-04-23T02:26:53.041Z,1010.59
2016-04-23T02:27:53.246Z,1010.61
2016-04-23T02:28:53.031Z,1010.62
2016-04-23T02:29:53.033Z,1010.57
2016-04-23T02:30:53.224Z,1010.54
2016-04-23T02:31:53.024Z,1010.55
2016-04-23T02:32:53.213Z,1010.51
2016-04-23T02:33:53.200Z,1010.46
2016-04-23T02:34:52.999Z,1010.49
2016-04-23T02:35:53.002Z,1010.51
2016-04-23T02:36:53.193Z,1010.48
2016-04-23T02:37:53.196Z,1010.49
2016-04-23T02:38:53.182Z,1010.47
2016-04-23T02:39:53.185Z,1010.49
2016-04-23T02:40:52.985Z,1010.51
2016-04-23T02:41:52.971Z,1010.46
2016-04-23T02:42:53.178Z,1010.51
2016-04-23T02:43:52.962Z,1010.54
2016-04-23T02:44:53.168Z,1010.55
2016-04-23T02:45:53.170Z,1010.55
2016-04-23T02:46:53.157Z,1010.53
2016-04-23T02:47:52.973Z,1010.49
2016-04-23T02:48:53.147Z,1010.49
2016-04-23T02:49:53.134Z,1010.47
2016-04-23T02:50:52.933Z,1010.48
2016-04-23T02:51:52.921Z,1010.5
2016-04-23T02:52:52.923Z,1010.52
2016-04-23T02:53:52.910Z,1010.5
2016-04-23T02:54:52.914Z,1010.48
2016-04-23T02:55:53.103Z,1010.43
2016-04-23T02:56:52.903Z,1010.46
2016-04-23T02:57:53.108Z,1010.43
2016-04-23T02:58:53.097Z,1010.45
2016-04-23T02:59:52.880Z,1010.45
2016-04-23T03:00:52.882Z,1010.47
2016-04-23T03:01:52.885Z,1010.43
2016-04-23T03:02:53.075Z,1010.46
2016-04-23T03:03:52.875Z,1010.45
2016-04-23T03:04:53.065Z,1010.43
2016-04-23T03:05:52.865Z,1010.45
2016-04-23T03:06:53.055Z,1010.44
2016-04-23T03:07:52.854Z,1010.44
2016-04-23T03:08:52.857Z,1010.43
2016-04-23T03:09:53.047Z,1010.43
2016-04-23T03:10:52.832Z,1010.43
2016-04-23T03:11:52.834Z,1010.42
2016-04-23T03:12:52.820Z,1010.4
2016-04-23T03:13:53.027Z,1010.39
2016-04-23T03:14:53.014Z,1010.38
2016-04-23T03:15:52.812Z,1010.38
2016-04-23T03:16:53.020Z,1010.41
2016-04-23T03:17:53.006Z,1010.34
2016-04-23T03:18:52.993Z,1010.38
2016-04-23T03:19:52.793Z,1010.33
2016-04-23T03:20:52.999Z,1010.32
2016-04-23T03:21:52.783Z,1010.37
2016-04-23T03:22:52.770Z,1010.31
2016-04-23T03:23:52.975Z,1010.32
2016-04-23T03:24:52.775Z,1010.3
2016-04-23T03:25:52.964Z,1010.33
2016-04-23T03:26:52.967Z,1010.33
2016-04-23T03:27:52.956Z,1010.3
2016-04-23T03:28:52.942Z,1010.25
2016-04-23T03:29:52.758Z,1010.23
2016-04-23T03:30:52.947Z,1010.24
2016-04-23T03:31:52.935Z,1010.22
2016-04-23T03:32:52.938Z,1010.24
2016-04-23T03:33:52.721Z,1010.3
2016-04-23T03:34:52.927Z,1010.24
2016-04-23T03:35:52.711Z,1010.29
2016-04-23T03:36:52.714Z,1010.25
2016-04-23T03:37:52.904Z,1010.26
2016-04-23T03:38:52.704Z,1010.14
2016-04-23T03:39:52.910Z,1010.21
2016-04-23T03:40:52.896Z,1010.16
2016-04-23T03:41:52.898Z,1010.16
2016-04-23T03:42:52.682Z,1010.19
2016-04-23T03:43:52.671Z,1010.19
2016-04-23T03:44:52.688Z,1010.2
2016-04-23T03:45:52.676Z,1010.14
2016-04-23T03:46:52.678Z,1010.14
2016-04-23T03:47:52.665Z,1010.18
2016-04-23T03:48:52.856Z,1010.19
2016-04-23T03:49:52.654Z,1010.17
2016-04-23T03:50:52.845Z,1010.17
2016-04-23T03:51:52.848Z,1010.21
2016-04-23T03:52:52.835Z,1010.17
2016-04-23T03:53:52.634Z,1010.18
2016-04-23T03:54:52.622Z,1010.16
2016-04-23T03:55:52.627Z,1010.12
2016-04-23T03:56:52.818Z,1010.13
2016-04-23T03:57:52.821Z,1010.16
2016-04-23T03:58:52.604Z,1010.15
2016-04-23T03:59:52.811Z,1010.14
2016-04-23T04:00:52.594Z,1010.15
2016-04-23T04:01:52.801Z,1010.17
2016-04-23T04:02:52.804Z,1010.18
2016-04-23T04:03:52.790Z,1010.2
2016-04-23T04:04:52.776Z,1010.22
2016-04-23T04:05:52.779Z,1010.25
2016-04-23T04:06:52.767Z,1010.23
2016-04-23T04:07:52.567Z,1010.23
2016-04-23T04:08:52.570Z,1010.2
2016-04-23T04:09:52.759Z,1010.2
2016-04-23T04:10:52.761Z,1010.24
2016-04-23T04:11:52.546Z,1010.18
2016-04-23T04:12:52.736Z,1010.2
2016-04-23T04:13:52.739Z,1010.18
2016-04-23T04:14:52.742Z,1010.18
2016-04-23T04:15:52.525Z,1010.16
2016-04-23T04:16:52.731Z,1010.12
2016-04-23T04:17:52.734Z,1010.14
2016-04-23T04:18:52.721Z,1010.17
2016-04-23T04:19:52.708Z,1010.15
2016-04-23T04:20:52.710Z,1010.14
2016-04-23T04:21:52.697Z,1010.15
2016-04-23T04:22:52.700Z,1010.15
2016-04-23T04:23:52.485Z,1010.13
2016-04-23T04:24:52.691Z,1010.17
2016-04-23T04:25:52.474Z,1010.2
2016-04-23T04:26:52.477Z,1010.17
2016-04-23T04:27:52.667Z,1010.19
2016-04-23T04:28:52.670Z,1010.15
2016-04-23T04:29:52.657Z,1010.12
2016-04-23T04:30:52.660Z,1010.13
2016-04-23T04:31:52.647Z,1010.07
2016-04-23T04:32:52.649Z,1010.03
2016-04-23T04:33:52.449Z,1010.18
2016-04-23T04:34:52.639Z,1010.11
2016-04-23T04:35:52.439Z,1010.15
2016-04-23T04:36:52.628Z,1010.12
2016-04-23T04:37:52.615Z,1010.1
2016-04-23T04:38:52.634Z,1010.12
2016-04-23T04:39:52.621Z,1010.13
2016-04-23T04:40:52.406Z,1010.18
2016-04-23T04:41:52.392Z,1010.17
2016-04-23T04:42:52.598Z,1010.22
2016-04-23T04:43:52.381Z,1010.14
2016-04-23T04:44:52.384Z,1010.18
2016-04-23T04:45:52.387Z,1010.16
2016-04-23T04:46:52.375Z,1010.14
2016-04-23T04:47:52.581Z,1010.14
2016-04-23T04:48:52.364Z,1010.13
2016-04-23T04:49:52.367Z,1010.08
2016-04-23T04:50:52.557Z,1010.07
2016-04-23T04:51:52.357Z,1010.05
2016-04-23T04:52:52.343Z,1010.07
2016-04-23T04:53:52.346Z,1010.05
2016-04-23T04:54:52.552Z,1010.07
2016-04-23T04:55:52.539Z,1010.05
2016-04-23T04:56:52.339Z,1010.06
2016-04-23T04:57:52.529Z,1010.05
2016-04-23T04:58:52.516Z,1010.05
2016-04-23T04:59:52.518Z,1010.06
2016-04-23T05:00:52.506Z,1010.02
2016-04-23T05:01:52.509Z,1010.07
2016-04-23T05:02:52.512Z,1010.07
2016-04-23T05:03:52.499Z,1010.06
2016-04-23T05:04:52.282Z,1010.06
2016-04-23T05:05:52.285Z,1010.03
2016-04-23T05:06:52.475Z,1010.03
2016-04-23T05:07:52.276Z,1010.07
2016-04-23T05:08:52.464Z,1010.03
2016-04-23T05:09:52.264Z,1010.07
2016-04-23T05:10:52.267Z,1010.05
2016-04-23T05:11:52.457Z,1010.01
2016-04-23T05:12:52.241Z,1010.05
2016-04-23T05:13:52.447Z,1010.05
2016-04-23T05:14:52.231Z,1010.04
2016-04-23T05:15:52.234Z,1010.01
2016-04-23T05:16:52.439Z,1010.03
2016-04-23T05:17:52.223Z,1010.03
2016-04-23T05:18:52.430Z,1010.06
2016-04-23T05:19:52.214Z,1010.05
2016-04-23T05:20:52.419Z,1010.03
2016-04-23T05:21:52.406Z,1010.02
2016-04-23T05:22:52.205Z,1010.01
2016-04-23T05:23:52.396Z,1009.98
2016-04-23T05:24:52.398Z,1010
2016-04-23T05:25:52.182Z,1009.96
2016-04-23T05:26:52.185Z,1010
2016-04-23T05:27:52.172Z,1010.02
2016-04-23T05:28:52.378Z,1009.98
2016-04-23T05:29:52.177Z,1010.02
2016-04-23T05:30:52.368Z,1010.05
2016-04-23T05:31:52.354Z,1010.05
2016-04-23T05:32:52.357Z,1010.05
2016-04-23T05:33:52.141Z,1010.05
2016-04-23T05:34:52.144Z,1010.05
2016-04-23T05:35:52.131Z,1010.04
2016-04-23T05:36:52.134Z,1009.98
2016-04-23T05:37:52.340Z,1009.97
2016-04-23T05:38:52.326Z,1009.95
2016-04-23T05:39:52.126Z,1010.01
2016-04-23T05:40:52.317Z,1009.98
2016-04-23T05:41:52.320Z,1010
2016-04-23T05:42:52.103Z,1009.93
2016-04-23T05:43:52.293Z,1009.97
2016-04-23T05:44:52.093Z,1009.95
2016-04-23T05:45:52.283Z,1009.98
2016-04-23T05:46:52.083Z,1009.96
2016-04-23T05:47:52.085Z,1009.98
2016-04-23T05:48:52.073Z,1009.99
2016-04-23T05:49:52.059Z,1009.94
2016-04-23T05:50:52.281Z,1009.99
2016-04-23T05:51:52.269Z,1009.97
2016-04-23T05:52:52.052Z,1009.97
2016-04-23T05:53:52.258Z,1009.97
2016-04-23T05:54:52.244Z,1009.95
2016-04-23T05:55:52.247Z,1009.95
2016-04-23T05:56:52.235Z,1009.97
2016-04-23T05:57:52.034Z,1009.91
2016-04-23T05:58:52.224Z,1009.96
2016-04-23T05:59:52.024Z,1009.95
2016-04-23T06:00:52.011Z,1009.96
2016-04-23T06:01:52.013Z,1009.96
2016-04-23T06:02:52.204Z,1009.94
2016-04-23T06:03:52.206Z,1009.94
2016-04-23T06:04:51.991Z,1009.9
2016-04-23T06:05:52.196Z,1009.94
2016-04-23T06:06:51.980Z,1009.91
2016-04-23T06:07:51.983Z,1009.91
2016-04-23T06:08:52.173Z,1009.92
2016-04-23T06:09:51.973Z,1009.91
2016-04-23T06:10:52.178Z,1009.9
2016-04-23T06:11:51.962Z,1009.91
2016-04-23T06:12:51.950Z,1009.91
2016-04-23T06:13:52.155Z,1009.88
2016-04-23T06:14:52.142Z,1009.87
2016-04-23T06:15:52.145Z,1009.9
2016-04-23T06:16:52.132Z,1009.87
2016-04-23T06:17:51.931Z,1009.88
2016-04-23T06:18:52.122Z,1009.88
2016-04-23T06:19:51.921Z,1009.88
2016-04-23T06:20:52.112Z,1009.9
2016-04-23T06:21:52.115Z,1009.92
2016-04-23T06:22:52.117Z,1009.94
2016-04-23T06:23:52.105Z,1009.95
2016-04-23T06:24:52.091Z,1009.88
2016-04-23T06:25:52.094Z,1009.87
2016-04-23T06:26:52.096Z,1009.87
2016-04-23T06:27:51.880Z,1009.82
2016-04-23T06:28:51.883Z,1009.85
2016-04-23T06:29:52.089Z,1009.83
2016-04-23T06:30:52.060Z,1009.87
2016-04-23T06:31:52.063Z,1009.85
2016-04-23T06:32:52.066Z,1009.88
2016-04-23T06:33:52.052Z,1009.86
2016-04-23T06:34:51.852Z,1009.87
2016-04-23T06:35:52.042Z,1009.84
2016-04-23T06:36:52.046Z,1009.84
2016-04-23T06:37:51.830Z,1009.9
2016-04-23T06:38:52.035Z,1009.89
2016-04-23T06:39:51.819Z,1009.87
2016-04-23T06:40:51.821Z,1009.81
2016-04-23T06:41:52.012Z,1009.84
2016-04-23T06:42:52.014Z,1009.8
2016-04-23T06:43:52.001Z,1009.83
2016-04-23T06:44:52.004Z,1009.82
2016-04-23T06:45:51.992Z,1009.78
2016-04-23T06:46:51.791Z,1009.78
2016-04-23T06:47:51.981Z,1009.8
2016-04-23T06:48:51.781Z,1009.8
2016-04-23T06:49:51.970Z,1009.79
2016-04-23T06:50:51.973Z,1009.8
2016-04-23T06:51:51.757Z,1009.79
2016-04-23T06:52:51.964Z,1009.74
2016-04-23T06:53:51.951Z,1009.76
2016-04-23T06:54:51.953Z,1009.82
2016-04-23T06:55:51.737Z,1009.78
2016-04-23T06:56:51.739Z,1009.74
2016-04-23T06:57:51.727Z,1009.74
2016-04-23T06:58:51.933Z,1009.75
2016-04-23T06:59:51.935Z,1009.77
2016-04-23T07:00:51.922Z,1009.71
2016-04-23T07:01:51.925Z,1009.72
2016-04-23T07:02:51.710Z,1009.69
2016-04-23T07:03:51.712Z,1009.72
2016-04-23T07:04:51.699Z,1009.72
2016-04-23T07:05:51.888Z,1009.68
2016-04-23T07:06:51.891Z,1009.71
2016-04-23T07:07:51.893Z,1009.68
2016-04-23T07:08:51.882Z,1009.69
2016-04-23T07:09:51.885Z,1009.68
2016-04-23T07:10:51.668Z,1009.69
2016-04-23T07:11:51.874Z,1009.72
2016-04-23T07:12:51.861Z,1009.68
2016-04-23T07:13:51.660Z,1009.67
2016-04-23T07:14:51.851Z,1009.65
2016-04-23T07:15:51.853Z,1009.65
2016-04-23T07:16:51.840Z,1009.66
2016-04-23T07:17:51.843Z,1009.65
2016-04-23T07:18:51.831Z,1009.59
2016-04-23T07:19:51.630Z,1009.6
2016-04-23T07:20:51.617Z,1009.56
2016-04-23T07:21:51.635Z,1009.58
2016-04-23T07:22:51.809Z,1009.55
2016-04-23T07:23:51.609Z,1009.54
2016-04-23T07:24:51.800Z,1009.57
2016-04-23T07:25:51.599Z,1009.55
2016-04-23T07:26:51.602Z,1009.52
2016-04-23T07:27:51.791Z,1009.57
2016-04-23T07:28:51.794Z,1009.57
2016-04-23T07:29:51.578Z,1009.55
2016-04-23T07:30:51.769Z,1009.59
2016-04-23T07:31:51.771Z,1009.55
2016-04-23T07:32:51.774Z,1009.57
2016-04-23T07:33:51.761Z,1009.56
2016-04-23T07:34:51.763Z,1009.55
2016-04-23T07:35:51.751Z,1009.53
2016-04-23T07:36:51.801Z,1009.54
2016-04-23T07:37:51.741Z,1009.56
2016-04-23T07:38:51.743Z,1009.54
2016-04-23T07:39:51.527Z,1009.55
2016-04-23T07:40:51.732Z,1009.52
2016-04-23T07:41:51.767Z,1009.55
2016-04-23T07:42:51.596Z,1009.54
2016-04-23T07:43:51.846Z,1009.55
2016-04-23T07:44:51.674Z,1009.56
2016-04-23T07:45:51.908Z,1009.54
2016-04-23T07:46:51.729Z,1009.56
2016-04-23T07:47:51.936Z,1009.56
2016-04-23T07:48:51.955Z,1009.57
2016-04-23T07:49:51.771Z,1009.56
2016-04-23T07:50:51.790Z,1009.55
2016-04-23T07:51:51.973Z,1009.53
2016-04-23T07:52:51.981Z,1009.52
2016-04-23T07:53:51.771Z,1009.53
2016-04-23T07:54:51.982Z,1009.52
2016-04-23T07:55:51.787Z,1009.51
2016-04-23T07:56:51.980Z,1009.54
2016-04-23T07:57:51.985Z,1009.54
2016-04-23T07:58:51.772Z,1009.52
2016-04-23T07:59:51.979Z,1009.52
2016-04-23T08:00:51.781Z,1009.47
2016-04-23T08:01:51.971Z,1009.46
2016-04-23T08:02:51.974Z,1009.49
2016-04-23T08:03:51.979Z,1009.46
2016-04-23T08:04:51.951Z,1009.48
2016-04-23T08:05:51.955Z,1009.46
2016-04-23T08:06:51.957Z,1009.46
2016-04-23T08:07:51.742Z,1009.45
2016-04-23T08:08:51.948Z,1009.44
2016-04-23T08:09:51.935Z,1009.46
2016-04-23T08:10:51.939Z,1009.44
2016-04-23T08:11:51.722Z,1009.43
2016-04-23T08:12:51.912Z,1009.42
2016-04-23T08:13:51.915Z,1009.41
2016-04-23T08:14:51.715Z,1009.39
2016-04-23T08:15:51.905Z,1009.4
2016-04-23T08:16:51.908Z,1009.42
2016-04-23T08:17:51.894Z,1009.41
2016-04-23T08:18:51.695Z,1009.42
2016-04-23T08:19:51.697Z,1009.35
2016-04-23T08:20:51.887Z,1009.4
2016-04-23T08:21:51.671Z,1009.42
2016-04-23T08:22:51.689Z,1009.39
2016-04-23T08:23:51.864Z,1009.39
2016-04-23T08:24:51.663Z,1009.38
2016-04-23T08:25:51.652Z,1009.38
2016-04-23T08:26:51.654Z,1009.4
2016-04-23T08:27:51.844Z,1009.35
2016-04-23T08:28:51.846Z,1009.37
2016-04-23T08:29:51.838Z,1009.33
2016-04-23T08:30:51.840Z,1009.32
2016-04-23T08:31:51.829Z,1009.35
2016-04-23T08:32:51.831Z,1009.3
2016-04-23T08:33:51.818Z,1009.33
2016-04-23T08:34:51.617Z,1009.31
2016-04-23T08:35:51.823Z,1009.27
2016-04-23T08:36:51.810Z,1009.27
2016-04-23T08:37:51.609Z,1009.23
2016-04-23T08:38:51.801Z,1009.22
2016-04-23T08:39:51.584Z,1009.24
2016-04-23T08:40:51.586Z,1009.24
2016-04-23T08:41:51.590Z,1009.26
2016-04-23T08:42:51.576Z,1009.28
2016-04-23T08:43:51.782Z,1009.26
2016-04-23T08:44:51.770Z,1009.27
2016-04-23T08:45:51.569Z,1009.24
2016-04-23T08:46:51.758Z,1009.26
2016-04-23T08:47:51.558Z,1009.26
2016-04-23T08:48:51.562Z,1009.28
2016-04-23T08:49:51.752Z,1009.29
2016-04-23T08:50:51.535Z,1009.29
2016-04-23T08:51:51.742Z,1009.28
2016-04-23T08:52:51.525Z,1009.34
2016-04-23T08:53:51.730Z,1009.35
2016-04-23T08:54:51.515Z,1009.36
2016-04-23T08:55:51.518Z,1009.37
2016-04-23T08:56:51.521Z,1009.41
2016-04-23T08:57:51.711Z,1009.4
2016-04-23T08:58:51.510Z,1009.48
2016-04-23T08:59:51.497Z,1009.42
2016-04-23T09:00:51.499Z,1009.48
2016-04-23T09:01:51.690Z,1009.48
2016-04-23T09:02:51.693Z,1009.43
2016-04-23T09:03:51.492Z,1009.47
2016-04-23T09:04:51.682Z,1009.49
2016-04-23T09:05:51.670Z,1009.49
2016-04-23T09:06:51.673Z,1009.43
2016-04-23T09:07:51.456Z,1009.44
2016-04-23T09:08:51.662Z,1009.42
2016-04-23T09:09:51.445Z,1009.39
2016-04-23T09:10:51.448Z,1009.41
2016-04-23T09:12:51.439Z,1009.4
2016-04-23T09:13:51.441Z,1009.42
2016-04-23T09:14:51.631Z,1009.41
2016-04-23T09:15:51.634Z,1009.44
2016-04-23T09:16:51.621Z,1009.4
2016-04-23T09:17:51.624Z,1009.38
2016-04-23T09:18:51.642Z,1009.38
2016-04-23T09:19:51.411Z,1009.31
2016-04-23T09:20:51.600Z,1009.33
2016-04-23T09:21:51.400Z,1009.31
2016-04-23T09:22:51.387Z,1009.28
2016-04-23T09:23:51.390Z,1009.31
2016-04-23T09:24:51.580Z,1009.34
2016-04-23T09:25:51.380Z,1009.29
2016-04-23T09:26:51.383Z,1009.27
2016-04-23T09:27:51.572Z,1009.3
2016-04-23T09:28:51.465Z,1009.29
2016-04-23T09:29:51.360Z,1009.26
2016-04-23T09:30:51.612Z,1009.24
2016-04-23T09:31:51.552Z,1009.28
2016-04-23T09:32:51.586Z,1009.2
2016-04-23T09:33:51.573Z,1009.26
2016-04-23T09:34:51.404Z,1009.28
2016-04-23T09:35:51.344Z,1009.25
2016-04-23T09:36:51.534Z,1009.23
2016-04-23T09:37:51.318Z,1009.29
2016-04-23T09:38:51.523Z,1009.27
2016-04-23T09:39:51.323Z,1009.29
2016-04-23T09:40:51.514Z,1009.24
2016-04-23T09:41:51.517Z,1009.24
2016-04-23T09:42:51.503Z,1009.22
2016-04-23T09:43:51.319Z,1009.21
2016-04-23T09:44:51.509Z,1009.22
2016-04-23T09:45:51.495Z,1009.21
2016-04-23T09:46:51.280Z,1009.23
2016-04-23T09:47:51.486Z,1009.23
2016-04-23T09:48:51.473Z,1009.18
2016-04-23T09:49:51.476Z,1009.18
2016-04-23T09:50:51.478Z,1009.19
2016-04-23T09:51:51.466Z,1009.15
2016-04-23T09:52:51.249Z,1009.18
2016-04-23T09:53:51.455Z,1009.16
2016-04-23T09:54:51.458Z,1009.18
2016-04-23T09:55:51.460Z,1009.14
2016-04-23T09:56:51.447Z,1009.14
2016-04-23T09:57:51.232Z,1009.07
2016-04-23T09:58:51.437Z,1009.08
2016-04-23T09:59:51.424Z,1009.07
2016-04-23T10:00:51.427Z,1009.06
2016-04-23T10:01:51.211Z,1009.07
2016-04-23T10:02:51.214Z,1009.07
2016-04-23T10:03:51.419Z,1009.02
2016-04-23T10:04:51.203Z,1009.07
2016-04-23T10:05:51.565Z,1009.04
2016-04-23T10:07:00.412Z,1009.05
2016-04-23T10:07:51.399Z,1009.03
2016-04-23T10:08:51.182Z,1008.98
2016-04-23T10:09:51.185Z,1009.02
2016-04-23T10:10:51.376Z,1008.95
2016-04-23T10:11:51.378Z,1008.98
2016-04-23T10:12:51.365Z,1008.94
2016-04-23T10:13:51.368Z,1008.94
2016-04-23T10:14:51.355Z,1008.96
2016-04-23T10:15:52.030Z,1008.97
2016-04-23T10:16:51.142Z,1008.96
2016-04-23T10:17:51.144Z,1008.93
2016-04-23T10:18:51.334Z,1008.93
2016-04-23T10:19:51.134Z,1008.93
2016-04-23T10:20:51.325Z,1008.95
2016-04-23T10:21:51.327Z,1008.92
2016-04-23T10:22:51.126Z,1008.94
2016-04-23T10:23:51.320Z,1008.9
2016-04-23T10:24:51.308Z,1008.89
2016-04-23T10:25:51.310Z,1008.91
2016-04-23T10:26:51.094Z,1008.88
2016-04-23T10:27:51.096Z,1008.87
2016-04-23T10:28:51.286Z,1008.84
2016-04-23T10:29:51.086Z,1008.83
2016-04-23T10:30:51.291Z,1008.83
2016-04-23T10:31:51.076Z,1008.88
2016-04-23T10:32:51.079Z,1008.85
2016-04-23T10:33:51.269Z,1008.83
2016-04-23T10:34:51.427Z,1008.84
2016-04-23T10:35:51.258Z,1008.82
2016-04-23T10:36:51.057Z,1008.83
2016-04-23T10:37:51.045Z,1008.81
2016-04-23T10:38:51.251Z,1008.85
2016-04-23T10:39:51.237Z,1008.82
2016-04-23T10:40:51.240Z,1008.76
2016-04-23T10:41:51.243Z,1008.73
2016-04-23T10:42:51.043Z,1008.74
2016-04-23T10:43:51.029Z,1008.74
2016-04-23T10:44:51.017Z,1008.76
2016-04-23T10:45:51.223Z,1008.74
2016-04-23T10:46:51.210Z,1008.76
2016-04-23T10:47:51.212Z,1008.76
2016-04-23T10:48:51.200Z,1008.75
2016-04-23T10:49:51.843Z,1008.73
2016-04-23T10:50:51.190Z,1008.73
2016-04-23T10:51:51.208Z,1008.75
2016-04-23T10:52:51.195Z,1008.76
2016-04-23T10:53:51.181Z,1008.72
2016-04-23T10:54:51.185Z,1008.73
2016-04-23T10:55:50.969Z,1008.74
2016-04-23T10:56:51.174Z,1008.77
2016-04-23T10:57:50.958Z,1008.72
2016-04-23T10:58:51.164Z,1008.71
2016-04-23T10:59:51.152Z,1008.73
2016-04-23T11:00:50.950Z,1008.76
2016-04-23T11:01:50.953Z,1008.73
2016-04-23T11:02:50.940Z,1008.76
2016-04-23T11:03:51.146Z,1008.76
2016-04-23T11:04:51.133Z,1008.75
2016-04-23T11:05:51.136Z,1008.78
2016-04-23T11:06:51.124Z,1008.78
2016-04-23T11:07:51.126Z,1008.8
2016-04-23T11:08:51.113Z,1008.79
2016-04-23T11:09:50.912Z,1008.8
2016-04-23T11:10:51.118Z,1008.75
2016-04-23T11:11:51.105Z,1008.81
2016-04-23T11:12:50.905Z,1008.8
2016-04-23T11:13:51.111Z,1008.8
2016-04-23T11:14:51.097Z,1008.84
2016-04-23T11:15:50.897Z,1008.83
2016-04-23T11:16:54.087Z,1008.85
2016-04-23T11:17:51.106Z,1008.8
2016-04-23T11:18:50.874Z,1008.8
2016-04-23T11:19:50.877Z,1008.81
2016-04-23T11:20:51.067Z,1008.82
2016-04-23T11:21:51.070Z,1008.77
2016-04-23T11:22:51.056Z,1008.72
2016-04-23T11:23:51.059Z,1008.83
2016-04-23T11:24:50.844Z,1008.81
2016-04-23T11:25:51.049Z,1008.74
2016-04-23T11:26:51.036Z,1008.74
2016-04-23T11:27:50.836Z,1008.72
2016-04-23T11:28:51.026Z,1008.72
2016-04-23T11:29:51.028Z,1008.79
2016-04-23T11:30:50.813Z,1008.68
2016-04-23T11:31:51.019Z,1008.68
2016-04-23T11:32:50.818Z,1008.7
2016-04-23T11:33:51.008Z,1008.62
2016-04-23T11:34:51.011Z,1008.6
2016-04-23T11:35:50.999Z,1008.55
2016-04-23T11:36:50.797Z,1008.55
2016-04-23T11:37:50.988Z,1008.53
2016-04-23T11:38:50.991Z,1008.52
2016-04-23T11:39:50.993Z,1008.49
2016-04-23T11:40:50.980Z,1008.44
2016-04-23T11:41:50.982Z,1008.42
2016-04-23T11:42:50.767Z,1008.4
2016-04-23T11:43:50.973Z,1008.45
2016-04-23T11:44:50.757Z,1008.46
2016-04-23T11:45:50.963Z,1008.51
2016-04-23T11:46:50.949Z,1008.43
2016-04-23T11:47:50.951Z,1008.4
2016-04-23T11:48:50.752Z,1008.44
2016-04-23T11:49:51.020Z,1008.35
2016-04-23T11:50:50.945Z,1008.31
2016-04-23T11:51:50.729Z,1008.26
2016-04-23T11:52:50.732Z,1008.27
2016-04-23T11:53:50.718Z,1008.25
2016-04-23T11:54:50.720Z,1008.25
2016-04-23T11:55:50.927Z,1008.26
2016-04-23T11:56:50.914Z,1008.23
2016-04-23T11:57:50.917Z,1008.21
2016-04-23T11:58:50.903Z,1008.19
2016-04-23T11:59:50.906Z,1008.2
2016-04-23T12:00:50.894Z,1008.17
2016-04-23T12:01:50.897Z,1008.18
2016-04-23T12:02:50.883Z,1008.22
2016-04-23T12:03:50.683Z,1008.18
2016-04-23T12:04:50.685Z,1008.21
2016-04-23T12:05:50.672Z,1008.1
2016-04-23T12:06:50.660Z,1008.12
2016-04-23T12:07:50.663Z,1008.07
2016-04-23T12:08:50.665Z,1008.13
2016-04-23T12:09:50.652Z,1008.14